METAR AND TAF INFORMATION
METAR FOR BGBW
ADDS - METARS form results

(2313 UTC 17 February 2020)
Data provider http://aviationweather.gov/metar/data/
 
Forecast for: BGBW (NARSSARSSUAQ , GL)
Text: TAF BGBW 171359Z 1715/1720 06005KT 9999 BKN170
Forecast period: 1500 to 2000 UTC 17 February 2020
Forecast type: FROM: standard forecast or significant change
Winds: from the ENE (60 degrees) at 6 MPH (5 knots; 2.6 m/s)
Visibility: 6 or more miles 10+ km)
Ceiling: 17000 feet AGL
Clouds: broken clouds at 17000 feet AGL
Weather: no significant weather forecast for this period
Text: TEMPO 1717/1720 BKN080
Forecast period: 1700 to 2000 UTC 17 February 2020
Forecast type: TEMPORARY: The following changes expected for less than half the time period
Visibility: missing
Ceiling: 8000 feet AGL
Clouds: broken clouds at 8000 feet AGL
Weather: no significant weather forecast for this period

 AIRPORT MAP

 RUNWAY INFORMATION
Runway 07 Runway length 6004 ft Runway width 148 ft
Runway elevation 11 ft Runway displaced threshold 0 ft Runway heading 41
Runway 25 Runway length 6004 ft Runway width 148 ft
Runway elevation 112 ft Runway displaced threshold 0 ft Runway heading 221

 AIRPORT FREQUENCIES
Type AFIS Name AFIS Frequency 119.1 MHZ

 AIRPORT NEAR NAVIGATION AIDS
Type NDB Name Narsarsuaq Frequency 359 KHZ
Type DME Name Narsarsuaq Frequency 111850 KHZ